Startpagina
METAR-TAF:

METAR-TAF

Vliegvelden :

Rarotonga, Cookeilanden

breedte: 21-12S, lengte: 159-49W, hoogte: 7 m

Actueel weer

Dit bericht is 24 minuten geleden gemaakt, om 16:00 UTC
Wind 3 kt uit het zuidzuidoosten, variërend tussen het oosten en het zuidzuidwesten
Temperatuur 25°C
Vochtigheid 94%
Druk 1008 hPa
Zicht 10 km of meer
motregen

METAR: NCRG 281600Z AUTO 16003KT 100V200 9999 DZ BKN023/// BKN028/// BKN035/// 25/24 Q1008

Tijdstip: 06:24 (16:24 UTC)

Verwachting

Dit bericht is 5 uur en het 18 minuten geleden gemaakt, om 11:06 UTC
Verwachting geldig van 28 om 12 UTC tot 29 om 12 UTC
Wind 3 kt uit variabele richting
Zicht 10 km of meer
Weinig wolken op 2500 ft
Verspreide wolken op 10000 ft
Kans 40% :
Tijdelijke
van 28 om 12 UTC tot 29 om 06 UTC
Zicht: 5000 m
Gebroken wolken op 1800 ft
regenbuien

TAF: NCRG 281106Z 2812/2912 VRB03KT 9999 FEW025 SCT100 PROB40 TEMPO 2812/2906 5000 SHRA BKN018

Waarnemingen en weersverwachtingen van meer dan 4000 vliegvelden (METAR en TAF).

De beschikbare stations zijn de gele en rode punten op de kaart.

Ga met uw muis naar het station om de naam te zien.

Klik dan om waarnemingen en weersverwachtingen te zien.

kaart wijzigen: klik op de groene knoppen met een zwart kruis om in te zoomen, op de groene knop met een streepje om uit te zoomen of op de groene pijlen voor aangrenzende kaarten.


METAR-TAF: